createdAt,value
2017-09-29T08:30:22.863Z,99.90
2017-09-29T08:32:51.980Z,99.90
2017-09-29T08:35:20.525Z,99.90
2017-09-29T08:37:49.632Z,99.90
2017-09-29T08:40:17.926Z,99.90
2017-09-29T08:42:46.284Z,99.90
2017-09-29T08:45:17.092Z,99.90
2017-09-29T08:47:45.394Z,99.90
2017-09-29T08:50:15.659Z,99.90
2017-09-29T08:52:45.146Z,99.90
2017-09-29T08:55:13.440Z,99.90
2017-09-29T08:57:41.769Z,99.90
2017-09-29T09:00:10.142Z,99.90
2017-09-29T09:02:38.469Z,99.90
2017-09-29T09:05:07.664Z,99.90
2017-09-29T09:07:36.051Z,99.90
2017-09-29T09:10:05.088Z,99.90
2017-09-29T09:12:35.063Z,99.90
2017-09-29T09:15:03.416Z,99.90
2017-09-29T09:17:31.839Z,99.90
2017-09-29T09:20:00.920Z,99.90
2017-09-29T09:22:29.246Z,99.90
2017-09-29T09:24:57.683Z,99.90
2017-09-29T09:27:27.068Z,99.90
2017-09-29T09:29:56.143Z,99.90
2017-09-29T09:32:25.278Z,99.90
2017-09-29T09:34:54.369Z,99.90
2017-09-29T09:37:24.428Z,99.90
2017-09-29T09:39:52.741Z,99.90
2017-09-29T09:42:21.024Z,99.90
2017-09-29T09:44:49.355Z,99.90
2017-09-29T09:47:17.676Z,99.90
2017-09-29T09:49:45.983Z,99.90
2017-09-29T09:52:14.327Z,99.90
2017-09-29T09:54:42.648Z,99.90
2017-09-29T09:57:10.943Z,99.90
2017-09-29T09:59:39.276Z,99.90
2017-09-29T10:02:10.431Z,99.90
2017-09-29T10:04:39.569Z,97.80
2017-09-29T10:07:08.738Z,97.80
2017-09-29T10:09:37.160Z,95.00
2017-09-29T10:12:06.370Z,94.00
2017-09-29T10:14:36.542Z,92.40
2017-09-29T10:17:04.872Z,92.30
2017-09-29T10:19:33.999Z,90.50
2017-09-29T10:22:03.101Z,90.40
2017-09-29T10:24:32.227Z,84.50
2017-09-29T10:27:01.322Z,79.20
2017-09-29T10:29:30.697Z,79.20
2017-09-29T10:31:59.030Z,73.60
2017-09-29T10:34:27.303Z,66.70
2017-09-29T10:36:56.396Z,59.70
2017-09-29T10:39:24.742Z,58.50
2017-09-29T10:41:54.857Z,56.00
2017-09-29T10:44:23.676Z,53.40
2017-09-29T10:46:52.743Z,45.90
2017-09-29T10:49:21.141Z,45.90
2017-09-29T10:51:50.242Z,42.50
2017-09-29T10:54:18.526Z,42.50
2017-09-29T10:56:47.921Z,40.60
2017-09-29T10:59:16.282Z,40.80
2017-09-29T11:01:45.375Z,41.00
2017-09-29T11:04:13.667Z,40.90
2017-09-29T11:06:42.569Z,40.80
2017-09-29T11:09:10.898Z,40.30
2017-09-29T11:11:40.448Z,40.50
2017-09-29T11:14:08.779Z,40.50
2017-09-29T11:16:37.840Z,40.50
2017-09-29T11:19:06.270Z,40.50
2017-09-29T11:21:35.747Z,37.90
2017-09-29T11:24:04.371Z,37.90
2017-09-29T11:26:33.470Z,36.40
2017-09-29T11:29:02.570Z,35.50
2017-09-29T11:31:32.027Z,33.60
2017-09-29T11:34:01.501Z,34.10
2017-09-29T11:36:30.649Z,33.70
2017-09-29T11:39:00.011Z,33.60
2017-09-29T11:41:29.109Z,32.10
2017-09-29T11:43:58.195Z,31.50
2017-09-29T11:46:26.530Z,31.40
2017-09-29T11:48:54.831Z,33.00
2017-09-29T11:51:23.159Z,32.20
2017-09-29T11:53:52.254Z,30.20
2017-09-29T11:56:21.336Z,30.10
2017-09-29T11:58:51.329Z,30.00
2017-09-29T12:01:19.813Z,30.00
2017-09-29T12:03:48.884Z,30.70
2017-09-29T12:06:17.756Z,30.00
2017-09-29T12:11:15.627Z,32.90
2017-09-29T12:13:45.135Z,33.40
2017-09-29T12:16:13.738Z,33.40
2017-09-29T12:18:42.822Z,32.70
2017-09-29T12:21:11.104Z,32.60
2017-09-29T12:23:39.444Z,32.20
2017-09-29T12:26:07.754Z,30.50
2017-09-29T12:28:36.340Z,30.00
2017-09-29T12:31:04.756Z,31.00
2017-09-29T12:36:03.044Z,29.10
2017-09-29T12:38:31.402Z,28.80
2017-09-29T12:41:00.020Z,29.40
2017-09-29T12:43:28.320Z,29.20
2017-09-29T12:45:56.765Z,28.80
2017-09-29T12:48:25.218Z,29.10
2017-09-29T12:50:53.619Z,28.60
2017-09-29T12:53:22.380Z,28.30
2017-09-29T12:55:50.819Z,28.90
2017-09-29T12:58:19.130Z,29.20
2017-09-29T13:00:47.495Z,28.50
2017-09-29T13:03:16.538Z,30.20
2017-09-29T13:05:46.057Z,28.90
2017-09-29T13:08:14.714Z,29.30
2017-09-29T13:10:43.885Z,29.50
2017-09-29T13:13:12.355Z,30.30
2017-09-29T13:15:40.754Z,29.20
2017-09-29T13:18:11.175Z,28.90
2017-09-29T13:20:39.465Z,29.40
2017-09-29T13:23:08.527Z,28.90
2017-09-29T13:25:36.838Z,28.80
2017-09-29T13:28:05.122Z,28.20
2017-09-29T13:30:34.337Z,27.80
2017-09-29T13:33:02.682Z,29.20
2017-09-29T13:35:31.135Z,30.00
2017-09-29T13:38:00.594Z,30.80
2017-09-29T13:40:28.923Z,30.80
2017-09-29T13:42:57.972Z,31.00
2017-09-29T13:45:26.302Z,31.00
2017-09-29T13:47:54.637Z,30.20
2017-09-29T13:50:22.947Z,30.40
2017-09-29T13:52:52.148Z,29.70
2017-09-29T13:55:21.607Z,29.50
2017-09-29T13:57:49.990Z,29.90
2017-09-29T14:00:19.102Z,31.70
2017-09-29T14:02:48.044Z,30.50
2017-09-29T14:05:17.083Z,30.00
2017-09-29T14:07:45.378Z,30.00
2017-09-29T14:10:13.694Z,29.50
2017-09-29T14:12:42.000Z,29.30
2017-09-29T14:15:10.327Z,29.20
2017-09-29T14:17:38.623Z,29.10
2017-09-29T14:20:06.910Z,29.60
2017-09-29T14:22:36.461Z,29.20
2017-09-29T14:25:05.902Z,30.20
2017-09-29T14:27:34.223Z,30.70
2017-09-29T14:30:02.551Z,32.20
2017-09-29T14:32:31.908Z,31.90
2017-09-29T14:35:00.408Z,32.10
2017-09-29T14:37:29.446Z,32.60
2017-09-29T14:39:57.796Z,33.20
2017-09-29T14:42:27.206Z,32.70
2017-09-29T14:44:56.314Z,32.30
2017-09-29T14:47:24.611Z,32.20
2017-09-29T14:49:52.938Z,31.60
2017-09-29T14:57:21.869Z,32.90
2017-09-29T14:59:50.215Z,33.10
2017-09-29T15:02:18.565Z,32.60
2017-09-29T15:04:47.694Z,31.90
2017-09-29T15:07:16.050Z,32.60
2017-09-29T15:09:44.974Z,32.60
2017-09-29T15:12:13.311Z,33.30
2017-09-29T15:14:41.591Z,32.90
2017-09-29T15:17:11.034Z,33.90
2017-09-29T15:19:39.313Z,33.80
2017-09-29T15:22:07.664Z,34.40
